EDDNLIRQ

Guest
Details From EDDN - Nurnberg
To LIRQ - Firenze
Flight Number -
Tags Generated
Created
Modified
Stats Distance 342 nm / 634 km
Max Altitude 0 ft / 0 m
Waypoints 5
Social Downloads 1
Likes 0
Share VATSIM

Download

Looking for another format? Having issues loading an existing format? Contact us
Advertisement - Login to hide

Notes

Generated

Route

EDDN DISUN OZE27 PRT LIRQ

ID Type Via Altitude Latitude Longitude Leg Dist Tot Dist Heading (true) Name
O EDDN APT - 0 ft / 0 m 49.50055˚ 11.05918˚ - 0 nm - -
DISUN FIX - 0 ft / 0 m 47.86278˚ 11.10500˚ 98 nm 98 nm 179° / 179° -
OZE27 FIX - 0 ft / 0 m 45.98874˚ 11.14951˚ 112 nm 210 nm 179° / 179° -
PRT VOR - 0 ft / 0 m 43.80994˚ 11.20048˚ 130 nm 341 nm 179° / 179° PERETOLA VOR-DME
O LIRQ APT - 0 ft / 0 m 43.80507˚ 11.19741˚ 0 nm 342 nm 204° / 204° -

Altitude Profile

Advertisement - Login to hide

Weather


0- 5 10 15 20 25 30 35+ Temperature / ° C

Clouds and Precipitation
Forecast for 2017-12-16 12:00 UTC. Updated 22 minutes ago

Ground ~20,000 ft ~40,000 ft Winds

EDDN

Details ICAO EDDN (NUE)
Name Nurnberg
Region Germany - Civil
Timezone Europe/Berlin (UTC+1.0)
Stats Elevation 1,045 ft / 319 m (AMSL)
Location 49.498744° 11.077580°
Runways 1
Magnetic Variation 3.019° E

METAR

EDDN 161120Z 30008KT 9999 FEW010 BKN110 02/M00 Q1008 R28/29//95 NOSIG

Decode

TAF

TAF AMD EDDN 160943Z 1609/1706 VRB02KT 6000 SCT005 BKN020 TEMPO 1609/1616 29007KT 4000 -SHSN BKN010 TEMPO 1616/1706 4000 -SN BKN009 PROB30 TEMPO 1616/1618 1200 SHSN VV004 BKN010CB

Decode

Departure Runways

ID Width Length Bearing (true) Bearing (mag) Surface Threshold Offset Overrun Length
10 148 ft / 45 m 8,819 ft / 2,688 m 98.60° 95.58° Asphalt 0 ft / 0 m 0 ft / 0 m
28 148 ft / 45 m 8,819 ft / 2,688 m 278.63° 275.61° Asphalt 0 ft / 0 m 0 ft / 0 m

LIRQ

Details ICAO LIRQ (FLR)
Name Firenze
Region Italy
Timezone Europe/Rome (UTC+1.0)
Stats Elevation 142 ft / 43 m (AMSL)
Location 43.809984° 11.205118°
Runways 1
Magnetic Variation 2.875° E

METAR

LIRQ 161120Z 23004KT 200V260 9999 SCT047 BKN075 09/05 Q1005

Decode

TAF

TAF TAF LIRQ 160500Z 1606/1706 VRB05KT 9999 BKN030 TEMPO 1606/1618 4000 SHRA BECMG 1608/1610 03010KT BECMG 1617/1619 VRB05KT

Decode

Destination Runways

ID Width Length Bearing (true) Bearing (mag) Surface Threshold Offset Overrun Length
05 98 ft / 30 m 5,420 ft / 1,652 m 48.52° 45.64° Asphalt 492 ft / 150 m 0 ft / 0 m
23 98 ft / 30 m 5,420 ft / 1,652 m 228.53° 225.65° Asphalt 2,287 ft / 697 m 0 ft / 0 m

Approach Navaids

Runway Type Ident Frequency Range Bearing (true) Bearing (mag) Slope Elevation
05 Localiser IFZ 110.30 MHz 18 nm / 33 km 48.10° 45.23° - 131 ft / 40 m (AMSL)
05 Glidescope IFZ 110.30 MHz 10 nm / 19 km 47.00° 44.12° 3.00° 144 ft / 44 m (AMSL)
05 DME IFZ 110.30 MHz 18 nm / 33 km - - - 144 ft / 44 m (AMSL)